Time;durP1;ratioP1;P1;durP2;ratioP2;P2;SDS_P1;SDS_P2;PMS_P1;PMS_P2;Temp;Humidity;BMP_temperature;BMP_pressure;BME280_temperature;BME280_humidity;BME280_pressure;Samples;Min_cycle;Max_cycle;Signal;HPM_P1;HPM_P2
2022/04/20 00:02:18;;;;;;;24.05;8.13;;;;;;;3.10;62.11;98745.28;1739608;81;21011;-83
2022/04/20 00:04:45;;;;;;;17.70;6.83;;;;;;;3.03;58.80;98746.16;1696074;84;20978;-84
2022/04/20 00:07:12;;;;;;;20.25;8.58;;;;;;;2.90;59.23;98742.28;1711140;83;20972;-81
2022/04/20 00:09:38;;;;;;;21.05;8.40;;;;;;;2.85;62.25;98736.75;1741953;82;20952;-81
2022/04/20 00:12:07;;;;;;;20.17;8.73;;;;;;;2.79;61.12;98742.30;1718487;83;21040;-82
2022/04/20 00:14:33;;;;;;;24.98;9.43;;;;;;;2.72;62.90;98741.00;1705877;84;21010;-82
2022/04/20 00:17:00;;;;;;;24.63;9.83;;;;;;;2.66;63.13;98743.13;1668265;85;21101;-82
2022/04/20 00:19:27;;;;;;;26.77;9.18;;;;;;;2.64;64.22;98742.27;1684079;85;20992;-82
2022/04/20 00:21:54;;;;;;;18.60;7.78;;;;;;;2.63;62.93;98744.42;1725222;82;21044;-80
2022/04/20 00:24:21;;;;;;;27.67;8.98;;;;;;;2.63;65.65;98742.30;1752288;82;20972;-81
2022/04/20 00:26:47;;;;;;;20.82;9.08;;;;;;;2.64;64.11;98743.99;1751553;82;20996;-82
2022/04/20 00:29:14;;;;;;;21.50;9.28;;;;;;;2.63;64.57;98738.44;1751423;82;21017;-81
2022/04/20 00:31:40;;;;;;;18.32;8.80;;;;;;;2.62;65.05;98732.87;1745972;82;21022;-83
2022/04/20 00:34:07;;;;;;;24.43;7.55;;;;;;;2.58;64.85;98744.40;1748004;82;21014;-83
2022/04/20 00:36:34;;;;;;;23.83;8.38;;;;;;;2.55;66.82;98746.13;1737106;82;21006;-83
2022/04/20 00:39:01;;;;;;;20.10;8.18;;;;;;;2.49;66.03;98745.69;1738735;82;21052;-83
2022/04/20 00:41:28;;;;;;;23.73;7.83;;;;;;;2.43;66.77;98743.52;1731140;82;21060;-82
2022/04/20 00:43:55;;;;;;;17.60;7.03;;;;;;;2.39;66.45;98742.25;1750310;82;21051;-83
2022/04/20 00:46:25;;;;;;;21.60;7.92;;;;;;;2.37;64.61;98740.54;1751926;82;20980;-83
2022/04/20 00:48:52;;;;;;;17.77;7.28;;;;;;;2.34;65.19;98740.52;1748564;82;20984;-81
2022/04/20 00:51:20;;;;;;;17.87;7.35;;;;;;;2.32;63.40;98743.51;1728646;82;21049;-81
2022/04/20 00:53:48;;;;;;;16.02;7.08;;;;;;;2.28;64.40;98741.36;1757185;82;21020;-80
2022/04/20 00:56:16;;;;;;;16.55;7.45;;;;;;;2.23;63.16;98737.94;1725340;82;21039;-81
2022/04/20 00:58:43;;;;;;;16.75;7.33;;;;;;;2.21;63.91;98743.49;1743073;82;21052;-81
2022/04/20 01:01:11;;;;;;;14.43;7.50;;;;;;;2.20;64.07;98743.05;1739757;82;21059;-81
2022/04/20 01:03:38;;;;;;;18.05;8.35;;;;;;;2.19;62.93;98746.48;1751562;82;21023;-83
2022/04/20 01:06:23;;;;;;;15.38;7.95;;;;;;;2.15;63.32;98750.73;1751335;82;20983;-83
2022/04/20 01:09:03;;;;;;;21.73;7.05;;;;;;;2.17;65.66;98752.03;1749956;80;21248;-83
2022/04/20 01:11:35;;;;;;;15.80;7.55;;;;;;;2.15;65.42;98752.45;1741112;81;21118;-83
2022/04/20 01:14:06;;;;;;;18.17;7.33;;;;;;;2.10;66.13;98748.56;1767597;81;21011;-82
2022/04/20 01:16:37;;;;;;;20.00;8.55;;;;;;;2.07;64.36;98746.41;1766279;80;21039;-82
2022/04/20 01:19:06;;;;;;;17.40;8.03;;;;;;;2.04;65.12;98760.52;1763701;80;21031;-83
2022/04/20 01:21:37;;;;;;;18.52;8.08;;;;;;;2.02;66.70;98751.97;1765909;79;21007;-83
2022/04/20 01:24:08;;;;;;;18.02;8.03;;;;;;;1.98;65.56;98753.66;1750931;82;21063;-83
2022/04/20 01:26:36;;;;;;;33.78;8.88;;;;;;;1.97;66.15;98754.52;1733048;82;21070;-83
2022/04/20 01:29:18;;;;;;;25.30;8.68;;;;;;;1.94;66.71;98753.22;1757771;80;21084;-84
2022/04/20 01:31:56;;;;;;;23.95;8.30;;;;;;;1.91;64.76;98758.31;1773114;80;20981;-83
2022/04/20 01:34:30;;;;;;;25.72;8.23;;;;;;;1.87;66.61;98755.31;1748902;80;21035;-81
2022/04/20 01:36:57;;;;;;;41.55;9.48;;;;;;;1.86;66.83;98758.31;1796213;80;21022;-81
2022/04/20 01:39:24;;;;;;;25.23;8.63;;;;;;;1.86;67.37;98757.45;1805030;78;21003;-81
2022/04/20 01:41:52;;;;;;;29.35;8.58;;;;;;;1.85;67.73;98758.29;1747325;81;20998;-83
2022/04/20 01:44:19;;;;;;;31.87;8.70;;;;;;;1.82;67.83;98754.45;1767892;79;21022;-82
2022/04/20 01:46:50;;;;;;;30.77;8.40;;;;;;;1.79;69.07;98754.88;1718373;83;20985;-81
2022/04/20 01:49:31;;;;;;;26.52;8.78;;;;;;;1.77;67.27;98755.69;1731203;83;21051;-82
2022/04/20 01:52:06;;;;;;;22.00;7.28;;;;;;;1.73;66.86;98754.84;1730891;81;21058;-81
2022/04/20 01:54:37;;;;;;;15.08;6.95;;;;;;;1.72;63.30;98758.23;1764354;80;21051;-83
2022/04/20 01:57:24;;;;;;;18.27;6.65;;;;;;;1.69;66.87;98754.80;1711385;83;20973;-83
2022/04/20 02:00:06;;;;;;;14.05;6.30;;;;;;;1.72;68.21;98753.55;1693338;83;21033;-84
2022/04/20 02:02:43;;;;;;;15.83;7.10;;;;;;;1.73;68.20;98752.69;1703336;84;21057;-82
2022/04/20 02:05:14;;;;;;;16.55;7.42;;;;;;;1.75;66.29;98759.55;1703398;83;21076;-82
2022/04/20 02:07:42;;;;;;;14.70;6.37;;;;;;;1.73;66.17;98757.41;1772018;80;21035;-82
2022/04/20 02:10:10;;;;;;;18.57;7.62;;;;;;;1.72;67.16;98766.36;1751800;81;21043;-82
2022/04/20 02:12:38;;;;;;;20.37;8.40;;;;;;;1.68;64.91;98757.80;1751870;81;20957;-81
2022/04/20 02:15:06;;;;;;;17.50;7.60;;;;;;;1.62;66.45;98760.33;1751203;82;21051;-81
2022/04/20 02:17:51;;;;;;;20.00;7.90;;;;;;;1.63;67.85;98757.33;1748114;82;20991;-83
2022/04/20 02:20:20;;;;;;;21.42;7.42;;;;;;;1.63;69.46;98762.02;1744334;82;21050;-83
2022/04/20 02:22:48;;;;;;;25.75;8.35;;;;;;;1.64;69.38;98759.91;1728297;80;20974;-83
2022/04/20 02:25:15;;;;;;;20.95;8.65;;;;;;;1.65;67.97;98762.92;1750132;82;20981;-82
2022/04/20 02:27:43;;;;;;;15.78;7.65;;;;;;;1.66;68.97;98754.37;1739240;82;21053;-82
2022/04/20 02:30:11;;;;;;;20.45;8.73;;;;;;;1.68;68.79;98759.08;1738351;82;21001;-82
2022/04/20 02:32:38;;;;;;;22.73;8.60;;;;;;;1.67;67.35;98762.91;1750219;82;21016;-82
2022/04/20 02:35:05;;;;;;;20.50;7.90;;;;;;;1.63;69.26;98768.43;1751040;82;20968;-82
2022/04/20 02:37:33;;;;;;;16.30;8.18;;;;;;;1.63;69.57;98773.55;1714749;84;21046;-83
2022/04/20 02:40:01;;;;;;;19.35;8.13;;;;;;;1.64;68.43;98772.72;1714764;83;20986;-82
2022/04/20 02:42:28;;;;;;;17.55;7.80;;;;;;;1.63;68.50;98770.14;1715196;84;21013;-81
2022/04/20 02:44:55;;;;;;;18.77;6.75;;;;;;;1.61;68.69;98762.44;1691548;85;21063;-81
2022/04/20 02:47:22;;;;;;;17.90;6.97;;;;;;;1.55;66.06;98762.02;1714986;84;21039;-81
2022/04/20 02:49:48;;;;;;;13.28;6.30;;;;;;;1.51;67.24;98773.09;1715301;83;20955;-81
2022/04/20 02:52:15;;;;;;;15.43;7.22;;;;;;;1.43;67.30;98776.00;1681698;84;21022;-81
2022/04/20 02:54:42;;;;;;;16.80;6.87;;;;;;;1.41;67.16;98774.28;1641243;87;21524;-81
2022/04/20 02:57:09;;;;;;;16.80;7.92;;;;;;;1.40;65.77;98779.84;1655164;85;21031;-81
2022/04/20 02:59:36;;;;;;;22.00;7.87;;;;;;;1.34;66.59;98779.80;1686538;85;21005;-81
2022/04/20 03:02:05;;;;;;;18.50;8.25;;;;;;;1.31;69.86;98778.09;1659336;85;21049;-81
2022/04/20 03:04:31;;;;;;;21.68;8.00;;;;;;;1.31;68.88;98783.21;1715156;83;20959;-82
2022/04/20 03:06:58;;;;;;;24.60;9.78;;;;;;;1.32;66.72;98800.70;1715267;83;21010;-81
2022/04/20 03:09:32;;;;;;;23.05;8.78;;;;;;;1.22;68.79;98797.65;1709452;83;20934;-81
2022/04/20 03:12:01;;;;;;;25.12;9.30;;;;;;;1.16;68.32;98801.86;1678241;83;21193;-83
2022/04/20 03:14:28;;;;;;;17.15;7.72;;;;;;;1.16;68.71;98800.58;1697428;84;20948;-83
2022/04/20 03:16:56;;;;;;;21.10;8.70;;;;;;;1.17;69.36;98798.47;1673685;84;21025;-82
2022/04/20 03:19:23;;;;;;;19.62;8.70;;;;;;;1.18;68.89;98804.44;1671415;85;21083;-82
2022/04/20 03:21:50;;;;;;;16.50;7.75;;;;;;;1.19;67.92;98807.42;1701284;83;21060;-82
2022/04/20 03:24:17;;;;;;;23.52;8.33;;;;;;;1.15;68.83;98804.00;1706211;84;21056;-83
2022/04/20 03:26:51;;;;;;;22.75;7.60;;;;;;;1.19;66.46;98808.70;1684693;84;21063;-83
2022/04/20 03:29:22;;;;;;;22.05;7.95;;;;;;;1.19;69.62;98806.14;1670980;81;21084;-82
2022/04/20 03:31:49;;;;;;;16.15;6.83;;;;;;;1.23;68.56;98805.31;1667931;86;21032;-83
2022/04/20 03:34:16;;;;;;;19.90;7.78;;;;;;;1.29;68.51;98809.20;1669308;83;21020;-83
2022/04/20 03:36:42;;;;;;;15.05;6.42;;;;;;;1.33;67.36;98808.41;1691969;84;20987;-82
2022/04/20 03:39:09;;;;;;;16.73;7.28;;;;;;;1.37;68.48;98811.42;1700770;83;20961;-83
2022/04/20 03:41:36;;;;;;;15.93;6.83;;;;;;;1.41;67.98;98817.41;1700801;84;21100;-82
2022/04/20 03:44:05;;;;;;;20.88;6.30;;;;;;;1.48;67.97;98808.08;1700737;84;20991;-82
2022/04/20 03:46:32;;;;;;;14.05;5.83;;;;;;;1.52;66.24;98806.81;1700876;84;21178;-83
2022/04/20 03:48:59;;;;;;;12.33;5.75;;;;;;;1.54;66.11;98811.95;1677400;84;21035;-82
2022/04/20 03:51:25;;;;;;;24.35;7.10;;;;;;;1.52;68.41;98807.25;1684932;84;21000;-83
2022/04/20 03:53:53;;;;;;;15.23;6.97;;;;;;;1.57;66.35;98809.39;1700751;84;21023;-83
2022/04/20 03:56:20;;;;;;;15.10;6.33;;;;;;;1.62;67.00;98804.33;1700766;84;21095;-84
2022/04/20 03:58:46;;;;;;;17.35;6.85;;;;;;;1.61;67.37;98809.84;1700673;83;21030;-83
2022/04/20 04:01:13;;;;;;;14.05;5.65;;;;;;;1.64;68.40;98805.19;1700830;83;21085;-82
2022/04/20 04:03:40;;;;;;;18.27;6.83;;;;;;;1.63;68.33;98805.59;1700789;84;21506;-83
2022/04/20 04:06:11;;;;;;;16.75;6.53;;;;;;;1.67;66.89;98809.03;1700712;84;21582;-82
2022/04/20 04:08:38;;;;;;;12.40;6.08;;;;;;;1.68;68.05;98814.17;1695977;84;20997;-84
2022/04/20 04:11:05;;;;;;;14.78;6.67;;;;;;;1.72;67.25;98813.34;1691717;85;21073;-84
2022/04/20 04:13:32;;;;;;;11.85;5.80;;;;;;;1.77;67.04;98819.37;1719045;82;21030;-83
2022/04/20 04:15:59;;;;;;;10.13;5.50;;;;;;;1.84;68.01;98818.97;1687350;84;21094;-83
2022/04/20 04:18:27;;;;;;;11.78;5.87;;;;;;;1.90;66.36;98823.27;1680226;84;21033;-83
2022/04/20 04:20:55;;;;;;;19.57;6.70;;;;;;;1.95;67.61;98826.70;1751713;82;21012;-82
2022/04/20 04:23:22;;;;;;;28.12;6.95;;;;;;;1.99;65.47;98824.19;1733628;82;20998;-81
2022/04/20 04:26:03;;;;;;;14.85;6.40;;;;;;;2.03;65.98;98824.18;1759322;80;21032;-82
2022/04/20 04:28:40;;;;;;;15.03;5.90;;;;;;;2.08;66.56;98828.92;1760379;80;20990;-83
2022/04/20 04:31:07;;;;;;;15.60;6.50;;;;;;;2.17;66.38;98828.97;1760776;82;21016;-84
2022/04/20 04:33:35;;;;;;;15.18;6.62;;;;;;;2.24;65.97;98832.41;1760770;82;20989;-84
2022/04/20 04:36:02;;;;;;;16.07;6.35;;;;;;;2.28;65.02;98833.70;1760561;80;20980;-83
2022/04/20 04:38:31;;;;;;;16.30;6.22;;;;;;;2.27;65.93;98830.72;1760489;80;21303;-82
2022/04/20 04:40:59;;;;;;;16.90;7.50;;;;;;;2.28;65.46;98832.41;1759044;82;20950;-81
2022/04/20 04:43:27;;;;;;;14.20;7.37;;;;;;;2.30;64.97;98835.00;1760726;81;21025;-82
2022/04/20 04:48:41;;;;;;;25.48;10.60;;;;;;;2.41;65.11;98834.63;1728272;83;21350;-83
2022/04/20 04:51:12;;;;;;;14.95;6.97;;;;;;;2.46;66.00;98820.08;1729091;81;21048;-84
2022/04/20 04:53:41;;;;;;;30.30;11.63;;;;;;;2.54;67.17;98822.23;1729046;83;21038;-84
2022/04/20 04:56:09;;;;;;;14.90;6.60;;;;;;;2.63;66.12;98821.42;1729040;83;21031;-83
2022/04/20 04:58:37;;;;;;;14.20;6.70;;;;;;;2.74;67.11;98824.00;1757595;81;20976;-83
2022/04/20 05:01:04;;;;;;;14.03;6.95;;;;;;;2.84;66.18;98824.88;1761869;81;21031;-84
2022/04/20 05:03:31;;;;;;;21.55;7.08;;;;;;;2.94;66.04;98829.17;1760975;81;21020;-84
2022/04/20 05:05:58;;;;;;;14.55;7.00;;;;;;;3.05;65.41;98825.34;1764189;80;21003;-83
2022/04/20 05:08:26;;;;;;;16.37;7.53;;;;;;;3.10;65.36;98825.75;1766533;80;20967;-83
2022/04/20 05:10:54;;;;;;;13.45;6.60;;;;;;;3.17;65.40;98826.20;1781874;80;21107;-84
2022/04/20 05:13:22;;;;;;;14.75;6.75;;;;;;;3.23;65.02;98831.77;1780495;81;21078;-81
2022/04/20 05:15:49;;;;;;;14.47;7.65;;;;;;;3.29;64.29;98834.34;1794150;79;20998;-82
2022/04/20 05:18:16;;;;;;;16.93;7.20;;;;;;;3.36;64.71;98830.92;1782780;79;20987;-82
2022/04/20 05:20:44;;;;;;;13.65;6.83;;;;;;;3.48;64.91;98840.34;1773607;80;21018;-83
2022/04/20 05:23:11;;;;;;;12.68;6.67;;;;;;;3.57;63.96;98831.75;1773409;80;21055;-82
2022/04/20 05:25:38;;;;;;;16.35;7.15;;;;;;;3.59;63.20;98835.17;1791878;80;21012;-81
2022/04/20 05:28:05;;;;;;;16.97;6.85;;;;;;;3.59;63.79;98836.47;1768920;80;20924;-82
2022/04/20 05:30:32;;;;;;;16.27;6.42;;;;;;;3.60;62.59;98838.16;1742467;81;21015;-83
2022/04/20 05:33:00;;;;;;;15.78;6.75;;;;;;;3.61;62.76;98834.75;1771767;81;21082;-82
2022/04/20 05:35:28;;;;;;;14.10;6.72;;;;;;;3.65;62.51;98842.87;1773010;81;20956;-81
2022/04/20 05:43:34;;;;;;;18.15;6.25;;;;;;;3.85;63.06;98827.85;1757784;80;21007;-82
2022/04/20 05:46:01;;;;;;;21.05;5.85;;;;;;;3.91;62.54;98829.97;1765795;80;21041;-82
2022/04/20 05:48:34;;;;;;;14.05;5.40;;;;;;;3.98;62.77;98825.69;1776201;79;21014;-85
2022/04/20 05:51:02;;;;;;;18.98;6.40;;;;;;;4.07;62.33;98826.92;1748548;81;20997;-81
2022/04/20 05:53:29;;;;;;;18.42;6.03;;;;;;;4.09;61.58;98825.64;1754055;81;21008;-84
2022/04/20 05:55:57;;;;;;;16.85;6.50;;;;;;;4.09;61.86;98825.20;1734196;81;21079;-84
2022/04/20 05:58:24;;;;;;;16.87;6.60;;;;;;;4.16;61.01;98828.63;1734044;83;20985;-84
2022/04/20 06:00:52;;;;;;;15.63;6.90;;;;;;;4.13;60.71;98830.76;1738207;80;21003;-83
2022/04/20 06:03:37;;;;;;;20.55;7.35;;;;;;;4.10;61.00;98831.19;1767236;80;21045;-82
2022/04/20 06:06:06;;;;;;;14.70;6.20;;;;;;;4.14;60.61;98825.20;1772794;79;21030;-80
2022/04/20 06:08:44;;;;;;;15.05;7.42;;;;;;;4.14;60.41;98826.05;1771327;80;20984;-84
2022/04/20 06:11:15;;;;;;;16.23;7.30;;;;;;;4.14;60.19;98822.20;1765086;80;21106;-80
2022/04/20 06:13:42;;;;;;;16.07;7.03;;;;;;;4.21;60.61;98820.88;1739390;80;21032;-81
2022/04/20 06:16:16;;;;;;;17.62;7.20;;;;;;;4.31;61.04;98819.54;1699006;82;21089;-81
2022/04/20 06:19:00;;;;;;;19.45;8.40;;;;;;;4.37;60.31;98823.37;1723530;81;21013;-82
2022/04/20 06:21:27;;;;;;;20.35;9.25;;;;;;;4.43;60.02;98828.92;1726563;82;20950;-82
2022/04/20 06:24:05;;;;;;;25.70;10.60;;;;;;;4.54;60.30;98830.18;1715409;81;20958;-81
2022/04/20 06:26:33;;;;;;;24.23;10.35;;;;;;;4.67;59.97;98821.50;1715312;81;21567;-80
2022/04/20 06:29:19;;;;;;;21.68;7.85;;;;;;;4.81;59.58;98829.15;1737473;82;21015;-83
2022/04/20 06:32:07;;;;;;;26.48;9.08;;;;;;;4.93;59.15;98825.23;1702711;82;21233;-84
2022/04/20 06:34:38;;;;;;;23.20;10.68;;;;;;;5.02;58.70;98819.59;1716896;83;21028;-83
2022/04/20 06:37:24;;;;;;;27.60;11.40;;;;;;;5.09;58.16;98816.08;1721856;82;21084;-81
2022/04/20 06:39:56;;;;;;;21.33;10.03;;;;;;;5.14;57.28;98814.34;1666751;82;21099;-82
2022/04/20 06:42:43;;;;;;;20.52;9.33;;;;;;;5.23;57.64;98811.67;1733154;80;21036;-84
2022/04/20 06:45:23;;;;;;;24.47;10.15;;;;;;;5.33;57.11;98821.06;1716883;83;21050;-82
2022/04/20 06:47:59;;;;;;;21.40;8.55;;;;;;;5.44;57.52;98817.53;1671942;83;21076;-82
2022/04/20 06:50:28;;;;;;;;;;;;;;;5.48;57.22;98807.17;1691620;83;21032;-83
2022/04/20 06:58:39;;;;;;;18.02;7.83;;;;;;;5.82;56.78;98802.97;1713717;82;21054;-81
2022/04/20 07:01:07;;;;;;;15.75;7.80;;;;;;;5.94;56.37;98803.27;1723748;82;21039;-84
2022/04/20 07:03:45;;;;;;;15.98;7.53;;;;;;;5.99;56.33;98792.52;1725615;80;21276;-83
2022/04/20 07:06:14;;;;;;;17.75;6.55;;;;;;;6.12;55.25;98791.48;1717044;80;21238;-82
2022/04/20 07:08:46;;;;;;;16.45;6.35;;;;;;;6.27;55.68;98781.86;1706882;80;21072;-88
2022/04/20 07:11:21;;;;;;;14.55;6.05;;;;;;;6.34;54.67;98781.73;1692502;82;21008;-81
2022/04/20 07:13:50;;;;;;;13.58;5.87;;;;;;;6.49;55.08;98782.43;1691226;82;21029;-80
2022/04/20 07:16:17;;;;;;;12.50;5.60;;;;;;;6.59;54.41;98776.70;1712539;82;21029;-80
2022/04/20 07:18:45;;;;;;;16.23;5.85;;;;;;;6.74;54.03;98777.75;1692481;83;21148;-80
2022/04/20 07:21:17;;;;;;;14.83;6.70;;;;;;;6.83;52.27;98778.92;1693445;83;21067;-80
2022/04/20 07:23:55;;;;;;;15.00;6.97;;;;;;;6.93;53.19;98770.59;1676908;84;21361;-82
2022/04/20 07:26:32;;;;;;;15.95;6.47;;;;;;;7.07;53.54;98770.38;1595729;89;21119;-82
2022/04/20 07:29:09;;;;;;;17.50;7.30;;;;;;;7.23;54.20;98761.48;1695242;84;20989;-82
2022/04/20 07:31:56;;;;;;;16.48;8.05;;;;;;;7.42;53.18;98762.44;1623870;86;21908;-79
2022/04/20 07:34:41;;;;;;;19.87;7.53;;;;;;;7.59;53.73;98759.57;1620772;86;21101;-82
2022/04/20 07:37:26;;;;;;;11.12;6.10;;;;;;;7.71;52.98;98749.83;1664183;84;21029;-80
2022/04/20 07:40:12;;;;;;;13.60;5.85;;;;;;;7.87;52.99;98746.95;1690503;83;21064;-80
2022/04/20 07:42:44;;;;;;;13.32;4.90;;;;;;;8.02;52.08;98744.48;1663589;83;21186;-80
2022/04/20 07:45:15;;;;;;;13.25;5.25;;;;;;;8.14;51.44;98738.63;1683828;83;21015;-80
2022/04/20 07:47:46;;;;;;;9.48;3.30;;;;;;;8.20;50.04;98737.66;1679405;83;20989;-81
2022/04/20 07:50:18;;;;;;;7.15;3.47;;;;;;;8.29;51.15;98737.44;1680682;83;21083;-81
2022/04/20 07:53:01;;;;;;;7.72;3.70;;;;;;;8.29;49.13;98731.41;1685000;83;20986;-80
2022/04/20 07:55:34;;;;;;;6.20;3.40;;;;;;;8.38;49.60;98731.22;1679431;83;21063;-81
2022/04/20 07:58:03;;;;;;;10.88;3.17;;;;;;;8.47;49.67;98728.44;1683982;83;20996;-81
2022/04/20 08:00:32;;;;;;;8.05;3.00;;;;;;;8.59;48.17;98727.31;1690052;80;20975;-84
2022/04/20 08:03:18;;;;;;;6.50;3.37;;;;;;;8.65;48.45;98723.73;1684393;83;21012;-80
2022/04/20 08:05:55;;;;;;;7.83;3.08;;;;;;;8.72;48.32;98709.76;1703192;82;21725;-79
2022/04/20 08:08:24;;;;;;;9.90;3.85;;;;;;;8.93;47.72;98721.33;1706327;82;21038;-83
2022/04/20 08:10:53;;;;;;;12.43;6.30;;;;;;;9.00;47.73;98716.88;1759270;79;21018;-85
2022/04/20 08:14:26;;;;;;;7.83;3.33;;;;;;;9.25;47.42;98707.58;1874306;74;22904;-84
2022/04/20 08:16:57;;;;;;;8.78;4.20;;;;;;;9.35;47.16;98712.05;1860263;75;21007;-84
2022/04/20 08:19:25;;;;;;;7.92;3.75;;;;;;;9.43;47.04;98708.84;1866003;75;21048;-83
2022/04/20 08:21:55;;;;;;;12.43;3.77;;;;;;;9.58;48.22;98712.75;1813542;78;21055;-84
2022/04/20 08:24:22;;;;;;;11.28;3.42;;;;;;;9.78;48.43;98705.71;1781042;79;20979;-83
2022/04/20 08:26:48;;;;;;;10.15;3.95;;;;;;;9.90;47.32;98707.95;1789025;79;21130;-84
2022/04/20 08:29:15;;;;;;;12.45;4.45;;;;;;;10.03;45.79;98701.14;1754941;81;21055;-79
2022/04/20 08:31:42;;;;;;;9.68;4.17;;;;;;;10.13;47.00;98704.70;1776172;79;21046;-82
2022/04/20 08:34:08;;;;;;;6.33;4.00;;;;;;;10.20;47.37;98708.41;1779277;79;21033;-80
2022/04/20 08:36:35;;;;;;;9.15;4.95;;;;;;;10.27;46.96;98712.55;1791699;79;20967;-81
2022/04/20 08:39:01;;;;;;;7.30;3.98;;;;;;;10.38;46.42;98711.78;1779689;79;21022;-83
2022/04/20 08:41:28;;;;;;;8.60;4.10;;;;;;;10.46;46.45;98702.00;1789750;79;21123;-80
2022/04/20 08:43:57;;;;;;;7.75;4.03;;;;;;;10.60;45.62;98695.07;1786890;79;21077;-79
2022/04/20 08:46:27;;;;;;;7.72;4.08;;;;;;;10.73;46.80;98695.09;1773739;79;21046;-82
2022/04/20 08:48:54;;;;;;;7.75;3.37;;;;;;;10.84;44.68;98689.99;1775890;79;21023;-82
2022/04/20 08:51:22;;;;;;;8.20;3.90;;;;;;;10.94;44.62;98695.28;1784636;79;21019;-81
2022/04/20 08:53:49;;;;;;;9.90;4.40;;;;;;;11.02;44.61;98695.03;1752960;80;21074;-85
2022/04/20 08:59:03;;;;;;;9.08;3.40;;;;;;;11.01;43.36;98691.59;1777386;79;21014;-84
2022/04/20 09:01:30;;;;;;;8.15;3.15;;;;;;;11.13;44.59;98690.34;1771170;80;21002;-83
2022/04/20 09:03:59;;;;;;;7.62;3.33;;;;;;;11.32;44.10;98703.55;1773172;79;21522;-80
2022/04/20 09:06:26;;;;;;;5.78;2.70;;;;;;;11.41;42.83;98695.90;1770354;80;21457;-81
2022/04/20 09:08:53;;;;;;;7.42;2.60;;;;;;;11.51;41.90;98695.97;1784719;79;21323;-80
2022/04/20 09:11:20;;;;;;;6.15;2.90;;;;;;;11.62;41.50;98695.58;1768066;80;21024;-80
2022/04/20 09:13:48;;;;;;;8.15;3.33;;;;;;;11.68;41.76;98700.13;1740884;80;21040;-78
2022/04/20 09:16:15;;;;;;;5.03;2.90;;;;;;;11.82;42.58;98692.28;1744177;80;21061;-77
2022/04/20 09:18:42;;;;;;;5.97;2.40;;;;;;;12.03;42.67;98698.01;1748690;81;20969;-78
2022/04/20 09:21:16;;;;;;;3.95;2.45;;;;;;;12.15;41.22;98701.91;1746927;80;21523;-78
2022/04/20 09:23:43;;;;;;;4.20;2.35;;;;;;;12.04;39.52;98697.58;1739410;81;21034;-78
2022/04/20 09:26:16;;;;;;;4.58;2.50;;;;;;;12.06;40.56;98697.91;1746217;81;21058;-80
2022/04/20 09:29:05;;;;;;;5.15;2.67;;;;;;;12.01;38.59;98693.77;1737261;81;21030;-78
2022/04/20 09:31:45;;;;;;;7.22;3.12;;;;;;;12.04;39.05;98698.88;1741988;81;21042;-86
2022/04/20 09:34:34;;;;;;;10.40;4.97;;;;;;;12.23;39.13;98700.32;1750897;81;20958;-83
2022/04/20 09:37:12;;;;;;;5.87;2.90;;;;;;;12.41;39.07;98704.81;1750583;80;21106;-82
2022/04/20 09:39:41;;;;;;;5.60;2.52;;;;;;;12.71;38.81;98697.57;1731567;81;21014;-85
2022/04/20 09:42:09;;;;;;;5.58;2.60;;;;;;;12.92;38.60;98698.44;1757730;81;21058;-80
2022/04/20 09:44:39;;;;;;;3.30;2.10;;;;;;;13.14;37.29;98690.56;1747183;81;20958;-82
2022/04/20 09:50:00;;;;;;;4.85;2.40;;;;;;;13.60;36.09;98690.86;1715758;81;21046;-84
2022/04/20 09:52:42;;;;;;;3.75;2.25;;;;;;;13.60;35.51;98683.02;1753902;81;20972;-81
2022/04/20 09:55:12;;;;;;;9.83;2.40;;;;;;;13.65;32.22;98676.69;1755436;81;20998;-80
2022/04/20 09:57:39;;;;;;;5.28;3.08;;;;;;;13.78;32.39;98677.44;1725124;81;21093;-79
2022/04/20 10:00:12;;;;;;;6.15;2.60;;;;;;;13.96;30.40;98675.76;1747720;80;21070;-79
2022/04/20 10:02:51;;;;;;;5.40;2.50;;;;;;;13.97;31.62;98675.70;1729107;81;21543;-79
2022/04/20 10:05:21;;;;;;;3.87;2.22;;;;;;;14.04;33.33;98667.11;1753881;81;20979;-79
2022/04/20 10:07:48;;;;;;;7.72;2.98;;;;;;;14.08;33.27;98664.27;1765969;81;21009;-79
2022/04/20 10:10:14;;;;;;;4.95;2.30;;;;;;;14.12;33.02;98644.94;1741830;82;20983;-79
2022/04/20 10:12:43;;;;;;;6.62;2.83;;;;;;;14.31;30.96;98662.37;1745872;79;21058;-79
2022/04/20 10:17:59;;;;;;;3.75;2.00;;;;;;;14.59;32.68;98648.84;1784324;80;21027;-78
2022/04/20 10:20:27;;;;;;;4.62;2.70;;;;;;;14.62;31.06;98661.78;1783677;80;21465;-79
2022/04/20 10:22:55;;;;;;;4.10;2.08;;;;;;;14.75;31.92;98652.86;1784849;80;21097;-80
2022/04/20 10:25:22;;;;;;;5.03;2.35;;;;;;;14.67;30.76;98649.31;1783731;80;20990;-81
2022/04/20 10:27:59;;;;;;;4.92;2.20;;;;;;;14.85;28.66;98648.03;1783770;80;21004;-81
2022/04/20 10:30:46;;;;;;;7.25;2.45;;;;;;;15.13;27.40;98647.95;1784333;80;21137;-79
2022/04/20 10:33:19;;;;;;;5.58;2.35;;;;;;;15.41;28.93;98648.21;1732688;82;21003;-78
2022/04/20 10:36:01;;;;;;;5.60;2.67;;;;;;;15.68;30.88;98648.55;1783552;80;21006;-80
2022/04/20 10:38:31;;;;;;;4.35;2.62;;;;;;;15.79;29.60;98649.30;1784582;80;21026;-79
2022/04/20 10:41:10;;;;;;;6.40;2.15;;;;;;;15.96;28.40;98649.72;1781883;80;20983;-82
2022/04/20 10:43:42;;;;;;;6.35;2.40;;;;;;;16.03;29.90;98644.51;1784411;80;21102;-79
2022/04/20 10:46:22;;;;;;;3.70;2.15;;;;;;;16.13;29.50;98647.48;1783640;80;21050;-83
2022/04/20 10:48:57;;;;;;;6.92;2.72;;;;;;;16.25;28.51;98645.52;1784146;80;20995;-80
2022/04/20 10:51:35;;;;;;;3.52;2.33;;;;;;;16.55;27.42;98649.11;1784302;80;20987;-80
2022/04/20 10:54:29;;;;;;;4.10;2.20;;;;;;;16.75;28.74;98646.21;1780974;80;21019;-80
2022/04/20 10:57:06;;;;;;;6.25;2.50;;;;;;;16.98;27.48;98646.68;1782513;80;21490;-80
2022/04/20 10:59:33;;;;;;;7.25;2.60;;;;;;;17.27;28.62;98649.75;1784701;80;20988;-80
2022/04/20 11:02:07;;;;;;;6.95;2.35;;;;;;;17.57;27.96;98643.58;1789153;79;20978;-80
2022/04/20 11:04:44;;;;;;;4.55;2.42;;;;;;;17.63;25.55;98641.89;1783159;80;21003;-81
2022/04/20 11:07:15;;;;;;;4.30;2.30;;;;;;;17.76;27.03;98640.66;1781406;80;20948;-80
2022/04/20 11:09:49;;;;;;;4.50;2.35;;;;;;;17.93;26.14;98643.59;1783249;80;21015;-79
2022/04/20 11:18:39;;;;;;;6.57;2.60;;;;;;;17.58;24.89;98626.86;1788277;80;21013;-79
2022/04/20 11:21:11;;;;;;;6.60;2.37;;;;;;;17.60;25.45;98631.55;1769614;80;21706;-80
2022/04/20 11:24:09;;;;;;;5.97;2.52;;;;;;;17.43;24.35;98629.13;1790892;80;20967;-80
2022/04/20 11:26:41;;;;;;;6.17;2.60;;;;;;;17.44;24.05;98622.92;1780302;80;21174;-78
2022/04/20 11:29:17;;;;;;;4.50;2.25;;;;;;;17.46;24.30;98623.67;1792353;80;20986;-79
2022/04/20 11:31:48;;;;;;;5.95;2.12;;;;;;;17.42;24.14;98620.38;1790773;80;21043;-80
2022/04/20 11:34:20;;;;;;;4.53;2.30;;;;;;;16.77;23.75;98618.09;1790933;80;20978;-78
2022/04/20 11:36:51;;;;;;;5.65;2.55;;;;;;;16.41;24.03;98621.02;1791697;80;21082;-79
2022/04/20 11:39:20;;;;;;;5.35;2.77;;;;;;;16.33;25.12;98620.14;1791975;80;20959;-80
2022/04/20 11:41:51;;;;;;;8.05;2.50;;;;;;;16.40;23.61;98621.50;1792011;80;21002;-79
2022/04/20 11:44:34;;;;;;;4.95;2.50;;;;;;;16.39;24.84;98623.73;1792439;80;21022;-80
2022/04/20 11:47:10;;;;;;;5.87;2.62;;;;;;;16.29;25.56;98619.94;1791921;80;20983;-81
2022/04/20 11:49:44;;;;;;;3.90;2.60;;;;;;;16.38;25.73;98616.80;1784764;80;21002;-80
2022/04/20 11:52:16;;;;;;;5.35;2.55;;;;;;;16.47;24.99;98614.98;1745894;82;21596;-80
2022/04/20 11:54:47;;;;;;;4.95;2.70;;;;;;;16.62;25.13;98608.47;1754209;81;21311;-81
2022/04/20 11:57:22;;;;;;;7.03;2.42;;;;;;;16.71;23.28;98600.05;1788936;80;21452;-79
2022/04/20 11:59:50;;;;;;;7.33;2.45;;;;;;;16.94;25.00;98592.66;1788733;80;21083;-80
2022/04/20 12:02:22;;;;;;;3.87;2.75;;;;;;;17.36;25.44;98591.02;1780424;80;21046;-81
2022/04/20 12:05:08;;;;;;;8.18;2.75;;;;;;;17.53;24.23;98586.89;1778445;80;20961;-79
2022/04/20 12:07:36;;;;;;;24.40;2.87;;;;;;;17.87;23.34;98581.70;1789189;80;21017;-78
2022/04/20 12:10:04;;;;;;;4.65;2.50;;;;;;;18.56;24.60;98572.92;1786249;80;21046;-79
2022/04/20 12:12:32;;;;;;;4.62;2.58;;;;;;;18.86;21.57;98580.13;1788724;80;21010;-79
2022/04/20 12:15:11;;;;;;;5.62;2.50;;;;;;;18.82;21.68;98573.39;1789180;79;22197;-78
2022/04/20 12:17:38;;;;;;;5.12;2.52;;;;;;;18.74;21.39;98575.67;1789324;79;21055;-79
2022/04/20 12:20:07;;;;;;;4.70;2.40;;;;;;;18.33;20.94;98567.39;1783039;79;21593;-80
2022/04/20 12:22:36;;;;;;;7.37;2.55;;;;;;;18.18;23.29;98572.32;1798798;79;21023;-79